Time;durP1;ratioP1;P1;durP2;ratioP2;P2;SDS_P1;SDS_P2;PMS_P1;PMS_P2;Temp;Humidity;BMP_temperature;BMP_pressure;BME280_temperature;BME280_humidity;BME280_pressure;Samples;Min_cycle;Max_cycle;Signal;HPM_P1;HPM_P2
2022/01/07 00:02:11;;;;;;;26.87;13.30;;;0.30;99.90;;;;;;5090591;28;20238;-53
2022/01/07 00:04:40;;;;;;;35.07;14.20;;;0.30;99.90;;;;;;5090922;28;20202;-53
2022/01/07 00:07:09;;;;;;;29.40;14.13;;;0.30;99.90;;;;;;5090503;28;20230;-54
2022/01/07 00:09:37;;;;;;;35.47;14.63;;;0.30;99.90;;;;;;5109251;28;20233;-55
2022/01/07 00:12:06;;;;;;;34.13;14.87;;;0.30;99.90;;;;;;5109062;28;20222;-53
2022/01/07 00:14:36;;;;;;;34.53;16.33;;;0.30;99.90;;;;;;5110615;28;20246;-55
2022/01/07 00:17:04;;;;;;;28.83;14.23;;;0.30;99.90;;;;;;5110708;28;20309;-54
2022/01/07 00:19:33;;;;;;;32.80;16.47;;;0.40;99.90;;;;;;5118675;28;20237;-54
2022/01/07 00:22:02;;;;;;;36.17;16.77;;;0.40;99.90;;;;;;5111430;28;20209;-53
2022/01/07 00:24:30;;;;;;;32.83;14.87;;;0.30;99.90;;;;;;5112071;28;20200;-53
2022/01/07 00:26:58;;;;;;;33.10;15.73;;;0.30;99.90;;;;;;5110958;28;20227;-52
2022/01/07 00:29:45;;;;;;;35.57;16.00;;;0.30;99.90;;;;;;5111644;28;20221;-54
2022/01/07 00:32:13;;;;;;;26.57;14.50;;;0.30;99.90;;;;;;5111687;28;20203;-54
2022/01/07 00:34:41;;;;;;;31.93;15.30;;;0.30;99.90;;;;;;5111075;28;20233;-54
2022/01/07 00:37:10;;;;;;;27.50;14.47;;;0.30;99.90;;;;;;5110213;28;20256;-54
2022/01/07 00:39:39;;;;;;;33.17;15.53;;;0.30;99.90;;;;;;5111167;28;20208;-52
2022/01/07 00:42:08;;;;;;;41.00;16.63;;;0.30;99.90;;;;;;5110931;28;20204;-55
2022/01/07 00:44:36;;;;;;;33.43;16.47;;;0.30;99.90;;;;;;5110691;28;20243;-53
2022/01/07 00:47:06;;;;;;;35.27;16.93;;;0.30;99.90;;;;;;5110678;28;20281;-54
2022/01/07 00:49:34;;;;;;;39.87;18.10;;;0.30;99.90;;;;;;5110533;28;20194;-55
2022/01/07 00:52:04;;;;;;;31.30;16.63;;;0.20;99.90;;;;;;5114190;28;20370;-53
2022/01/07 00:54:32;;;;;;;33.37;16.70;;;0.20;99.90;;;;;;5114221;28;20208;-54
2022/01/07 00:57:00;;;;;;;34.47;16.60;;;0.20;99.90;;;;;;5114406;28;20255;-53
2022/01/07 00:59:28;;;;;;;37.80;18.20;;;0.20;99.90;;;;;;5106220;28;20216;-53
2022/01/07 01:01:57;;;;;;;31.13;16.70;;;0.20;99.90;;;;;;5093088;28;20201;-52
2022/01/07 01:04:43;;;;;;;37.17;17.23;;;0.20;99.90;;;;;;5094307;28;20189;-54
2022/01/07 01:07:11;;;;;;;34.90;18.07;;;0.20;99.90;;;;;;5093036;28;20220;-53
2022/01/07 01:09:40;;;;;;;36.90;17.60;;;0.20;99.90;;;;;;5112350;28;20249;-53
2022/01/07 01:12:10;;;;;;;40.13;18.20;;;0.20;99.90;;;;;;5110888;28;20246;-54
2022/01/07 01:14:38;;;;;;;42.40;17.53;;;0.20;99.90;;;;;;5106568;27;20207;-54
2022/01/07 01:17:07;;;;;;;44.67;18.40;;;0.20;99.90;;;;;;5134334;27;20251;-55
2022/01/07 01:19:36;;;;;;;42.43;17.13;;;0.30;99.90;;;;;;5128449;27;20688;-54
2022/01/07 01:22:08;;;;;;;33.43;17.40;;;0.30;99.90;;;;;;5111274;27;20287;-54
2022/01/07 01:24:36;;;;;;;36.33;18.03;;;0.30;99.90;;;;;;5123624;27;20203;-53
2022/01/07 01:27:05;;;;;;;44.33;18.00;;;0.30;99.90;;;;;;5115301;27;20314;-56
2022/01/07 01:29:33;;;;;;;37.27;16.27;;;0.30;99.90;;;;;;5113323;28;20271;-54
2022/01/07 01:32:03;;;;;;;37.07;18.47;;;0.30;99.90;;;;;;5105408;28;20212;-55
2022/01/07 01:34:32;;;;;;;34.67;17.23;;;0.30;99.90;;;;;;5113053;28;20262;-54
2022/01/07 01:37:00;;;;;;;40.40;16.60;;;0.30;99.90;;;;;;5101002;28;20260;-54
2022/01/07 01:39:29;;;;;;;37.23;17.27;;;0.30;99.90;;;;;;5093513;28;20260;-55
2022/01/07 01:41:58;;;;;;;35.57;17.50;;;0.30;99.90;;;;;;5103452;28;20681;-53
2022/01/07 01:44:26;;;;;;;40.30;18.90;;;0.30;99.90;;;;;;5113499;28;20255;-53
2022/01/07 01:46:56;;;;;;;41.73;18.90;;;0.30;99.90;;;;;;5115443;27;20222;-54
2022/01/07 01:49:24;;;;;;;38.83;18.73;;;0.30;99.90;;;;;;5134305;27;20267;-53
2022/01/07 01:51:53;;;;;;;39.10;17.90;;;0.30;99.90;;;;;;5094616;27;20624;-54
2022/01/07 01:54:21;;;;;;;36.50;17.87;;;0.40;99.90;;;;;;5131481;27;20198;-54
2022/01/07 01:56:51;;;;;;;36.00;19.40;;;0.40;99.90;;;;;;5133805;27;20225;-52
2022/01/07 01:59:24;;;;;;;43.90;20.03;;;0.40;99.90;;;;;;5126830;27;20202;-53
2022/01/07 02:01:53;;;;;;;44.77;21.77;;;0.40;99.90;;;;;;5112545;28;20203;-53
2022/01/07 02:04:22;;;;;;;46.57;24.97;;;0.40;99.90;;;;;;5113092;28;20218;-53
2022/01/07 02:06:51;;;;;;;42.17;20.40;;;0.50;99.90;;;;;;5113307;28;20295;-55
2022/01/07 02:09:24;;;;;;;42.67;20.20;;;0.40;99.90;;;;;;5112547;28;20206;-55
2022/01/07 02:11:53;;;;;;;40.73;22.93;;;0.50;99.90;;;;;;5112739;28;20229;-54
2022/01/07 02:14:21;;;;;;;46.33;21.60;;;0.50;99.90;;;;;;5112469;28;20696;-53
2022/01/07 02:16:50;;;;;;;44.07;21.70;;;0.60;99.90;;;;;;5091971;28;20216;-54
2022/01/07 02:19:18;;;;;;;49.13;22.57;;;0.50;99.90;;;;;;5104717;28;20201;-54
2022/01/07 02:21:47;;;;;;;45.60;21.90;;;0.50;99.90;;;;;;5112867;28;20250;-53
2022/01/07 02:24:15;;;;;;;37.10;20.73;;;0.50;99.90;;;;;;5112294;28;20656;-54
2022/01/07 02:26:47;;;;;;;43.33;23.03;;;0.50;99.90;;;;;;5112304;28;20205;-53
2022/01/07 02:29:15;;;;;;;49.00;21.80;;;0.50;99.90;;;;;;5111508;28;20680;-53
2022/01/07 02:31:43;;;;;;;49.63;22.17;;;0.60;99.90;;;;;;5112539;28;20665;-54
2022/01/07 02:34:11;;;;;;;43.90;21.10;;;0.60;99.90;;;;;;5112593;28;20240;-54
2022/01/07 02:36:39;;;;;;;39.60;20.97;;;0.60;99.90;;;;;;5111206;28;20264;-56
2022/01/07 02:39:08;;;;;;;43.90;23.97;;;0.60;99.90;;;;;;5112697;28;20205;-54
2022/01/07 02:41:36;;;;;;;40.57;21.00;;;0.60;99.90;;;;;;5112554;28;20243;-54
2022/01/07 02:44:05;;;;;;;35.17;21.27;;;0.70;99.90;;;;;;5112475;28;20262;-53
2022/01/07 02:46:33;;;;;;;41.13;22.50;;;0.70;99.90;;;;;;5112129;28;20204;-53
2022/01/07 02:49:09;;;;;;;46.57;24.70;;;0.80;99.90;;;;;;5111646;28;20682;-53
2022/01/07 02:51:38;;;;;;;44.27;24.00;;;0.70;99.90;;;;;;5111567;28;20682;-54
2022/01/07 02:54:08;;;;;;;42.40;25.23;;;0.70;99.90;;;;;;5124762;27;20203;-54
2022/01/07 02:56:38;;;;;;;40.17;27.03;;;0.80;99.90;;;;;;5132584;27;20295;-55
2022/01/07 02:59:07;;;;;;;43.43;24.43;;;0.80;99.90;;;;;;5122699;27;20210;-54
2022/01/07 03:01:37;;;;;;;41.47;23.63;;;0.80;99.90;;;;;;5105716;28;20210;-54
2022/01/07 03:04:06;;;;;;;39.50;25.10;;;0.80;99.90;;;;;;5111863;28;20287;-52
2022/01/07 03:06:35;;;;;;;41.20;21.73;;;0.90;99.90;;;;;;5111919;28;20231;-53
2022/01/07 03:09:06;;;;;;;42.77;23.40;;;0.80;99.90;;;;;;5103397;28;20212;-54
2022/01/07 03:11:35;;;;;;;41.77;22.67;;;0.90;99.90;;;;;;5104368;28;20199;-54
2022/01/07 03:14:04;;;;;;;42.67;23.40;;;0.90;99.90;;;;;;5102326;28;20674;-54
2022/01/07 03:16:32;;;;;;;40.67;23.87;;;0.80;99.90;;;;;;5111693;28;20265;-54
2022/01/07 03:19:00;;;;;;;44.53;23.90;;;0.90;99.90;;;;;;5109572;28;20240;-54
2022/01/07 03:21:29;;;;;;;37.23;23.30;;;0.90;99.90;;;;;;5132458;27;20205;-53
2022/01/07 03:23:57;;;;;;;41.53;23.83;;;0.90;99.90;;;;;;5132483;27;20200;-54
2022/01/07 03:26:25;;;;;;;43.20;23.63;;;0.90;99.90;;;;;;5131960;27;20216;-54
2022/01/07 03:28:54;;;;;;;40.57;22.30;;;0.90;99.90;;;;;;5123748;27;20254;-53
2022/01/07 03:31:22;;;;;;;44.27;25.33;;;0.90;99.90;;;;;;5111538;28;20217;-53
2022/01/07 03:33:50;;;;;;;44.03;24.97;;;0.90;99.90;;;;;;5111309;28;20661;-54
2022/01/07 03:36:19;;;;;;;42.77;24.83;;;0.80;99.90;;;;;;5110762;28;20238;-54
2022/01/07 03:38:47;;;;;;;34.10;22.50;;;0.80;99.90;;;;;;5111047;28;20650;-54
2022/01/07 03:41:15;;;;;;;36.97;22.53;;;0.90;99.90;;;;;;5111160;28;20206;-52
2022/01/07 03:43:43;;;;;;;39.17;23.40;;;0.90;99.90;;;;;;5111303;28;20241;-53
2022/01/07 03:46:13;;;;;;;37.37;22.80;;;0.90;99.90;;;;;;5111524;28;20241;-54
2022/01/07 03:48:41;;;;;;;36.40;21.77;;;0.90;99.90;;;;;;5111420;28;20310;-53
2022/01/07 03:51:09;;;;;;;44.20;22.83;;;0.90;99.90;;;;;;5111272;28;20206;-54
2022/01/07 03:53:37;;;;;;;36.40;21.13;;;0.90;99.90;;;;;;5124434;28;20235;-54
2022/01/07 03:56:06;;;;;;;40.43;20.90;;;1.00;99.90;;;;;;5131930;28;20240;-55
2022/01/07 03:58:34;;;;;;;35.90;20.77;;;1.00;99.90;;;;;;5110429;28;20307;-54
2022/01/07 04:01:02;;;;;;;45.30;23.10;;;1.00;99.90;;;;;;5091216;28;20215;-52
2022/01/07 04:03:32;;;;;;;35.93;22.63;;;1.00;99.90;;;;;;5105631;28;20254;-54
2022/01/07 04:06:00;;;;;;;38.87;23.00;;;1.00;99.90;;;;;;5131790;28;20240;-54
2022/01/07 04:08:28;;;;;;;38.87;20.00;;;1.00;99.90;;;;;;5112465;28;20262;-54
2022/01/07 04:10:56;;;;;;;35.80;21.47;;;1.00;99.90;;;;;;5111414;28;20265;-55
2022/01/07 04:13:24;;;;;;;37.67;21.70;;;1.10;99.90;;;;;;5110917;28;20210;-54
2022/01/07 04:15:52;;;;;;;39.80;21.47;;;1.10;99.90;;;;;;5110841;28;20611;-54
2022/01/07 04:18:20;;;;;;;42.37;21.33;;;1.10;99.90;;;;;;5110269;28;20692;-53
2022/01/07 04:20:50;;;;;;;37.20;20.93;;;1.10;99.90;;;;;;5110945;28;20200;-53
2022/01/07 04:23:18;;;;;;;37.77;20.63;;;1.20;99.90;;;;;;5111109;28;20248;-53
2022/01/07 04:25:46;;;;;;;42.30;20.47;;;1.10;99.90;;;;;;5114379;28;20272;-52
2022/01/07 04:28:14;;;;;;;40.03;21.87;;;1.10;99.90;;;;;;5114861;28;20279;-53
2022/01/07 04:30:45;;;;;;;33.97;20.70;;;1.10;99.90;;;;;;5114942;28;20233;-53
2022/01/07 04:33:20;;;;;;;39.00;20.67;;;1.10;99.90;;;;;;5114771;28;20688;-53
2022/01/07 04:35:50;;;;;;;31.10;18.73;;;1.20;99.90;;;;;;5115253;28;20309;-54
2022/01/07 04:38:18;;;;;;;31.33;19.40;;;1.20;99.90;;;;;;5114424;28;20256;-53
2022/01/07 04:40:46;;;;;;;33.80;19.53;;;1.20;99.90;;;;;;5114987;28;20202;-53
2022/01/07 04:43:15;;;;;;;34.60;18.93;;;1.30;99.90;;;;;;5114038;28;20226;-53
2022/01/07 04:45:43;;;;;;;29.30;18.73;;;1.20;99.90;;;;;;5114979;28;20325;-54
2022/01/07 04:48:12;;;;;;;35.60;20.07;;;1.30;99.90;;;;;;5113642;28;20236;-54
2022/01/07 04:50:40;;;;;;;29.43;19.07;;;1.20;99.90;;;;;;5114606;28;20664;-53
2022/01/07 04:53:09;;;;;;;39.73;19.87;;;1.20;99.90;;;;;;5117427;27;20599;-53
2022/01/07 04:55:38;;;;;;;36.40;19.93;;;1.30;99.90;;;;;;5114501;28;20240;-54
2022/01/07 04:58:08;;;;;;;34.77;19.67;;;1.30;99.90;;;;;;5113946;28;20232;-56
2022/01/07 05:00:37;;;;;;;32.33;18.70;;;1.30;99.90;;;;;;5125634;27;20206;-54
2022/01/07 05:03:05;;;;;;;37.03;20.17;;;1.30;99.90;;;;;;5134941;27;20304;-55
2022/01/07 05:05:34;;;;;;;30.93;19.27;;;1.30;99.90;;;;;;5093770;28;20281;-54
2022/01/07 05:08:02;;;;;;;27.43;18.27;;;1.30;99.90;;;;;;5106472;28;20224;-53
2022/01/07 05:10:32;;;;;;;32.07;20.50;;;1.30;99.90;;;;;;5114280;28;20256;-53
2022/01/07 05:13:00;;;;;;;36.37;19.97;;;1.40;99.90;;;;;;5105434;28;20555;-52
2022/01/07 05:15:29;;;;;;;36.43;20.30;;;1.40;99.90;;;;;;5113666;28;20658;-53
2022/01/07 05:17:57;;;;;;;34.90;19.80;;;1.30;99.90;;;;;;5114301;28;20561;-53
2022/01/07 05:20:25;;;;;;;31.63;19.20;;;1.20;99.90;;;;;;5113749;28;20200;-54
2022/01/07 05:22:53;;;;;;;35.43;20.03;;;1.20;99.90;;;;;;5113368;28;20207;-54
2022/01/07 05:25:21;;;;;;;32.83;19.17;;;1.20;99.90;;;;;;5113782;28;20283;-54
2022/01/07 05:27:50;;;;;;;31.33;19.20;;;1.30;99.90;;;;;;5113278;28;20228;-52
2022/01/07 05:30:19;;;;;;;35.23;19.33;;;1.30;99.90;;;;;;5113520;28;20205;-54
2022/01/07 05:32:47;;;;;;;31.30;19.07;;;1.30;99.90;;;;;;5113465;28;20200;-54
2022/01/07 05:35:15;;;;;;;30.90;18.93;;;1.30;99.90;;;;;;5113128;28;20201;-53
2022/01/07 05:37:43;;;;;;;29.73;18.03;;;1.30;99.90;;;;;;5113012;28;20273;-53
2022/01/07 05:40:12;;;;;;;36.33;20.00;;;1.30;99.90;;;;;;5114130;28;20209;-54
2022/01/07 05:42:40;;;;;;;27.93;19.10;;;1.30;99.90;;;;;;5113204;28;20258;-53
2022/01/07 05:45:10;;;;;;;29.93;19.10;;;1.30;99.90;;;;;;5114048;28;20212;-53
2022/01/07 05:47:39;;;;;;;25.83;17.97;;;1.30;99.90;;;;;;5112790;27;20248;-54
2022/01/07 05:50:08;;;;;;;28.87;18.60;;;1.30;99.90;;;;;;5134498;27;20205;-55
2022/01/07 05:52:37;;;;;;;28.73;18.20;;;1.30;99.90;;;;;;5128692;27;20714;-52
2022/01/07 05:55:06;;;;;;;32.07;18.67;;;1.30;99.90;;;;;;5113442;28;20206;-55
2022/01/07 05:57:35;;;;;;;26.10;17.17;;;1.30;99.90;;;;;;5092290;28;20746;-53
2022/01/07 06:00:05;;;;;;;30.47;18.13;;;1.30;99.90;;;;;;5105480;28;20221;-54
2022/01/07 06:02:35;;;;;;;28.63;17.63;;;1.30;99.90;;;;;;5113185;28;20686;-53
2022/01/07 06:05:03;;;;;;;28.30;17.37;;;1.30;99.90;;;;;;5113470;28;20633;-55
2022/01/07 06:07:32;;;;;;;29.37;17.87;;;1.30;99.90;;;;;;5112911;28;20226;-55
2022/01/07 06:10:00;;;;;;;32.07;16.80;;;1.30;99.90;;;;;;5113266;28;20206;-51
2022/01/07 06:12:28;;;;;;;27.23;17.27;;;1.30;99.90;;;;;;5112352;28;20205;-54
2022/01/07 06:14:56;;;;;;;30.83;17.70;;;1.30;99.90;;;;;;5113081;28;20210;-54
2022/01/07 06:17:24;;;;;;;31.87;17.90;;;1.30;99.90;;;;;;5113089;28;20229;-53
2022/01/07 06:19:53;;;;;;;27.07;17.93;;;1.30;99.90;;;;;;5113162;28;20278;-53
2022/01/07 06:22:21;;;;;;;31.63;18.27;;;1.30;99.90;;;;;;5111867;28;20231;-53
2022/01/07 06:24:49;;;;;;;31.00;19.53;;;1.30;99.90;;;;;;5113214;28;20206;-52
2022/01/07 06:27:17;;;;;;;32.67;19.00;;;1.30;99.90;;;;;;5111842;28;20608;-52
2022/01/07 06:29:46;;;;;;;34.60;20.83;;;1.20;99.90;;;;;;5112627;28;20668;-54
2022/01/07 06:32:14;;;;;;;32.33;20.47;;;1.20;99.90;;;;;;5112429;28;20253;-53
2022/01/07 06:34:42;;;;;;;35.80;21.23;;;1.20;99.90;;;;;;5112697;28;20562;-55
2022/01/07 06:37:12;;;;;;;40.47;21.67;;;1.30;99.90;;;;;;5111728;28;20224;-54
2022/01/07 06:39:40;;;;;;;39.93;21.30;;;1.30;99.90;;;;;;5112693;28;20220;-53
2022/01/07 06:42:09;;;;;;;33.70;21.20;;;1.20;99.90;;;;;;5112318;28;20247;-55
2022/01/07 06:44:37;;;;;;;32.83;21.30;;;1.20;99.90;;;;;;5112111;28;20238;-53
2022/01/07 06:47:06;;;;;;;33.23;19.60;;;1.20;99.90;;;;;;5112303;28;20284;-53
2022/01/07 06:49:34;;;;;;;30.37;18.60;;;1.20;99.90;;;;;;5111901;28;20197;-53
2022/01/07 06:52:03;;;;;;;38.13;19.77;;;1.20;99.90;;;;;;5118046;27;20209;-56
2022/01/07 06:54:32;;;;;;;31.83;18.73;;;1.20;99.90;;;;;;5112145;28;20204;-54
2022/01/07 06:57:00;;;;;;;32.90;19.70;;;1.20;99.90;;;;;;5101849;28;20223;-54
2022/01/07 06:59:29;;;;;;;27.17;17.70;;;1.20;99.90;;;;;;5108836;28;20285;-54
2022/01/07 07:01:57;;;;;;;31.23;18.10;;;1.20;99.90;;;;;;5111772;28;20205;-53
2022/01/07 07:04:25;;;;;;;31.50;17.73;;;1.20;99.90;;;;;;5111669;28;20243;-54
2022/01/07 07:06:53;;;;;;;32.33;17.00;;;1.30;99.90;;;;;;5111508;28;20664;-54
2022/01/07 07:09:21;;;;;;;27.70;18.23;;;1.30;99.90;;;;;;5111580;28;20275;-54
2022/01/07 07:11:51;;;;;;;33.13;19.27;;;1.30;99.90;;;;;;5111915;28;20199;-54
2022/01/07 07:14:19;;;;;;;34.00;18.83;;;1.40;99.90;;;;;;5111580;28;20244;-54
2022/01/07 07:16:47;;;;;;;30.80;18.50;;;1.40;99.90;;;;;;5111996;28;20254;-54
2022/01/07 07:19:15;;;;;;;26.03;17.53;;;1.40;99.90;;;;;;5111945;28;20311;-53
2022/01/07 07:21:43;;;;;;;27.70;17.53;;;1.40;99.90;;;;;;5121909;27;20202;-54
2022/01/07 07:24:11;;;;;;;28.37;18.90;;;1.40;99.90;;;;;;5111777;28;20606;-55
2022/01/07 07:26:39;;;;;;;29.57;18.00;;;1.40;99.90;;;;;;5111306;28;20237;-54
2022/01/07 07:29:09;;;;;;;32.53;19.40;;;1.40;99.90;;;;;;5111764;28;20205;-53
2022/01/07 07:31:39;;;;;;;30.80;18.53;;;1.30;99.90;;;;;;5111976;28;20241;-54
2022/01/07 07:36:55;;;;;;;32.50;18.43;;;1.40;99.90;;;;;;5073016;28;20239;-54
2022/01/07 07:39:23;;;;;;;31.73;18.23;;;1.30;99.90;;;;;;5090601;28;20222;-53
2022/01/07 07:41:51;;;;;;;31.77;18.67;;;1.30;99.90;;;;;;5091251;28;20238;-54
2022/01/07 07:44:25;;;;;;;35.70;20.20;;;1.30;99.90;;;;;;5108666;28;20211;-55
2022/01/07 07:46:53;;;;;;;32.57;17.53;;;1.40;99.90;;;;;;5111189;28;20276;-54
2022/01/07 07:49:21;;;;;;;29.93;18.17;;;1.30;99.90;;;;;;5126106;28;20300;-54
2022/01/07 07:51:51;;;;;;;31.83;17.67;;;1.40;99.90;;;;;;5121203;28;20197;-55
2022/01/07 07:54:20;;;;;;;26.80;17.50;;;1.40;99.90;;;;;;5096886;28;20202;-54
2022/01/07 07:56:48;;;;;;;32.23;19.07;;;1.40;99.90;;;;;;5090266;28;20687;-53
2022/01/07 07:59:16;;;;;;;27.83;17.37;;;1.40;99.90;;;;;;5092077;28;20272;-54
2022/01/07 08:01:46;;;;;;;28.13;17.93;;;1.40;99.90;;;;;;5095162;28;20208;-55
2022/01/07 08:04:15;;;;;;;31.30;19.53;;;1.40;99.90;;;;;;5097649;28;20254;-53
2022/01/07 08:06:43;;;;;;;30.43;18.53;;;1.30;99.90;;;;;;5114610;28;20212;-54
2022/01/07 08:09:12;;;;;;;27.87;17.90;;;1.40;99.90;;;;;;5115532;28;20196;-54
2022/01/07 08:11:50;;;;;;;33.90;19.40;;;1.40;99.90;;;;;;5115271;28;20199;-55
2022/01/07 08:17:07;;;;;;;29.30;18.10;;;1.40;99.90;;;;;;5094775;28;20226;-53
2022/01/07 08:19:36;;;;;;;24.67;16.53;;;1.40;99.90;;;;;;5095194;28;20280;-54
2022/01/07 08:22:05;;;;;;;26.77;17.30;;;1.50;99.90;;;;;;5107044;28;20215;-54
2022/01/07 08:24:34;;;;;;;29.00;17.77;;;1.50;99.90;;;;;;5114973;28;20206;-53
2022/01/07 08:27:02;;;;;;;28.97;18.40;;;1.50;99.90;;;;;;5115019;28;20614;-55
2022/01/07 08:29:51;;;;;;;28.33;17.40;;;1.50;99.90;;;;;;5115167;28;20235;-55
2022/01/07 08:35:07;;;;;;;29.20;18.10;;;1.50;99.90;;;;;;5115363;28;20686;-54
2022/01/07 08:37:36;;;;;;;23.37;15.90;;;1.50;99.90;;;;;;5114598;28;20370;-54
2022/01/07 08:40:04;;;;;;;24.43;15.77;;;1.50;99.90;;;;;;5114618;28;20222;-53
2022/01/07 08:42:33;;;;;;;24.00;15.37;;;1.50;99.90;;;;;;5114456;28;20214;-53
2022/01/07 08:45:01;;;;;;;27.10;16.23;;;1.50;99.90;;;;;;5124265;27;20709;-55
2022/01/07 08:47:31;;;;;;;25.70;16.87;;;1.60;99.90;;;;;;5127269;27;20219;-53
2022/01/07 08:49:59;;;;;;;26.47;16.57;;;1.60;99.90;;;;;;5110000;28;20206;-53
2022/01/07 08:52:27;;;;;;;24.70;16.77;;;1.70;99.90;;;;;;5106671;28;20202;-53
2022/01/07 08:54:55;;;;;;;27.33;17.50;;;1.70;99.90;;;;;;5135866;27;20835;-53
2022/01/07 08:57:24;;;;;;;24.90;16.90;;;1.70;99.90;;;;;;5105465;28;20227;-54
2022/01/07 08:59:52;;;;;;;24.77;17.53;;;1.70;99.90;;;;;;5105864;28;20225;-53
2022/01/07 09:02:21;;;;;;;23.23;15.67;;;1.70;99.90;;;;;;5115509;28;20674;-53
2022/01/07 09:04:50;;;;;;;20.83;14.47;;;1.70;99.90;;;;;;5114923;28;20272;-54
2022/01/07 09:07:18;;;;;;;27.17;17.67;;;1.70;99.90;;;;;;5114004;28;20256;-53
2022/01/07 09:09:47;;;;;;;24.27;16.77;;;1.70;99.90;;;;;;5114462;28;20245;-54
2022/01/07 09:12:15;;;;;;;26.40;18.33;;;1.70;99.90;;;;;;5109769;28;20707;-56
2022/01/07 09:14:43;;;;;;;20.60;15.63;;;1.80;99.90;;;;;;5094145;28;20204;-56
2022/01/07 09:17:11;;;;;;;26.83;17.40;;;1.80;99.90;;;;;;5093751;28;20281;-55
2022/01/07 09:19:40;;;;;;;25.23;18.20;;;1.70;99.90;;;;;;5103710;28;20551;-59
2022/01/07 09:22:10;;;;;;;29.20;19.50;;;1.70;99.90;;;;;;5120433;27;20204;-52
2022/01/07 09:24:38;;;;;;;24.47;17.30;;;1.80;99.90;;;;;;5113296;28;20279;-53
2022/01/07 09:27:06;;;;;;;27.07;19.17;;;1.80;99.90;;;;;;5113911;28;20271;-54
2022/01/07 09:29:34;;;;;;;22.27;16.27;;;1.90;99.90;;;;;;5113356;28;20217;-52
2022/01/07 09:32:04;;;;;;;21.73;16.63;;;1.90;99.90;;;;;;5114010;28;20289;-53
2022/01/07 09:34:32;;;;;;;23.80;18.52;;;1.90;99.90;;;;;;5113090;28;20438;-54
2022/01/07 09:37:03;;;;;;;17.87;14.27;;;2.00;99.90;;;;;;5103035;28;20292;-54
2022/01/07 09:39:33;;;;;;;20.93;16.23;;;2.00;99.90;;;;;;5111710;28;20212;-54
2022/01/07 09:42:02;;;;;;;18.90;13.97;;;1.90;99.90;;;;;;5124787;27;20218;-55
2022/01/07 09:44:30;;;;;;;21.80;16.53;;;1.90;99.90;;;;;;5131845;27;20764;-54
2022/01/07 09:46:59;;;;;;;18.40;14.87;;;1.90;99.90;;;;;;5098803;27;20492;-54
2022/01/07 09:49:33;;;;;;;20.47;14.77;;;1.90;99.90;;;;;;5126308;27;20215;-54
2022/01/07 09:52:02;;;;;;;21.10;15.30;;;1.90;99.90;;;;;;5100168;28;20562;-53
2022/01/07 09:54:30;;;;;;;18.20;14.47;;;1.90;99.90;;;;;;5093480;28;20219;-53
2022/01/07 09:56:59;;;;;;;20.37;14.53;;;1.80;99.90;;;;;;5097295;28;20257;-54
2022/01/07 09:59:28;;;;;;;25.47;18.07;;;2.00;99.90;;;;;;5112435;28;20215;-53
2022/01/07 10:02:01;;;;;;;20.43;14.67;;;1.90;99.90;;;;;;5112992;28;20746;-54
2022/01/07 10:04:32;;;;;;;24.33;17.10;;;2.00;99.90;;;;;;5113535;28;20214;-54
2022/01/07 10:07:12;;;;;;;20.93;16.03;;;2.00;99.90;;;;;;5112771;28;20226;-53
2022/01/07 10:09:40;;;;;;;23.60;17.33;;;2.00;99.90;;;;;;5113376;28;20203;-53
2022/01/07 10:12:10;;;;;;;20.53;16.23;;;2.00;99.90;;;;;;5096763;28;20635;-54
2022/01/07 10:14:38;;;;;;;22.00;18.20;;;2.00;99.90;;;;;;5094441;28;20277;-53
2022/01/07 10:17:07;;;;;;;22.40;17.97;;;2.10;99.90;;;;;;5092672;28;20280;-54
2022/01/07 10:19:37;;;;;;;19.70;16.27;;;2.10;99.90;;;;;;5101611;28;20215;-53
2022/01/07 10:22:08;;;;;;;20.43;15.60;;;2.10;99.90;;;;;;5118635;27;20216;-54
2022/01/07 10:24:55;;;;;;;19.67;15.80;;;2.10;99.90;;;;;;5112379;28;20260;-54
2022/01/07 10:27:26;;;;;;;16.93;13.80;;;2.10;99.90;;;;;;5111785;28;21053;-53
2022/01/07 10:29:54;;;;;;;20.50;16.03;;;2.20;99.90;;;;;;5113019;28;20601;-54
2022/01/07 10:32:28;;;;;;;18.27;15.57;;;2.10;99.90;;;;;;5112776;28;20249;-53
2022/01/07 10:35:14;;;;;;;18.83;14.97;;;2.10;99.90;;;;;;5112456;28;20587;-55
2022/01/07 10:37:56;;;;;;;18.70;14.63;;;2.20;99.90;;;;;;5123094;27;20223;-54
2022/01/07 10:40:35;;;;;;;18.27;15.23;;;2.20;99.90;;;;;;5115323;27;20252;-55
2022/01/07 10:43:17;;;;;;;17.50;14.00;;;2.20;99.90;;;;;;5092079;28;20267;-53
2022/01/07 10:45:48;;;;;;;17.50;14.23;;;2.20;99.90;;;;;;5091764;28;20239;-53
2022/01/07 10:48:18;;;;;;;17.17;14.17;;;2.20;99.90;;;;;;5105962;28;20228;-55
2022/01/07 10:50:47;;;;;;;21.93;14.83;;;2.20;99.90;;;;;;5112074;28;20622;-53
2022/01/07 10:53:22;;;;;;;17.13;14.13;;;2.30;99.90;;;;;;5111975;28;20325;-53
2022/01/07 10:56:09;;;;;;;17.77;14.30;;;2.30;99.90;;;;;;5112496;28;20257;-54
2022/01/07 10:59:00;;;;;;;18.03;14.73;;;2.20;99.90;;;;;;5110171;28;20235;-53
2022/01/07 11:01:30;;;;;;;22.10;15.37;;;2.20;99.90;;;;;;5089971;28;20224;-55
2022/01/07 11:03:59;;;;;;;15.93;13.47;;;2.20;99.90;;;;;;5098599;28;20210;-55
2022/01/07 11:06:29;;;;;;;16.67;13.50;;;2.20;99.90;;;;;;5112092;28;20207;-54
2022/01/07 11:08:58;;;;;;;17.73;13.13;;;2.20;99.90;;;;;;5110911;28;20547;-54
2022/01/07 11:11:28;;;;;;;15.80;13.57;;;2.20;99.90;;;;;;5112301;28;20233;-54
2022/01/07 11:14:06;;;;;;;19.07;15.43;;;2.20;99.90;;;;;;5111621;28;20739;-53
2022/01/07 11:16:36;;;;;;;22.27;16.90;;;2.20;99.90;;;;;;5111847;28;20205;-53
2022/01/07 11:19:05;;;;;;;17.07;13.93;;;2.20;99.90;;;;;;5116222;27;20230;-53
2022/01/07 11:21:35;;;;;;;15.53;13.23;;;2.30;99.90;;;;;;5123878;27;20360;-53
2022/01/07 11:24:36;;;;;;;17.07;12.57;;;2.30;99.90;;;;;;5110915;28;20200;-54
2022/01/07 11:27:07;;;;;;;19.10;14.37;;;2.30;99.90;;;;;;5111147;28;20235;-54
2022/01/07 11:29:45;;;;;;;15.07;12.73;;;2.30;99.90;;;;;;5111176;28;20644;-54
2022/01/07 11:32:37;;;;;;;17.07;15.27;;;2.30;99.90;;;;;;5111977;28;20211;-55
2022/01/07 11:35:45;;;;;;;16.90;13.50;;;2.30;99.90;;;;;;5093391;28;20197;-54
2022/01/07 11:38:33;;;;;;;17.50;14.33;;;2.40;99.90;;;;;;5111464;28;20220;-55
2022/01/07 11:41:02;;;;;;;16.80;12.30;;;2.30;99.90;;;;;;5110738;28;20223;-52
2022/01/07 11:43:39;;;;;;;17.03;14.03;;;2.30;99.90;;;;;;5110992;28;20284;-53
2022/01/07 11:46:27;;;;;;;14.13;12.63;;;2.30;99.90;;;;;;5111023;28;20234;-55
2022/01/07 11:48:57;;;;;;;14.70;11.83;;;2.40;99.90;;;;;;5110261;28;20215;-53
2022/01/07 11:51:35;;;;;;;17.30;12.57;;;2.40;99.90;;;;;;5110424;28;20265;-54
2022/01/07 11:54:11;;;;;;;14.87;13.10;;;2.50;99.90;;;;;;5111006;28;20192;-53
2022/01/07 11:56:40;;;;;;;16.73;13.27;;;2.50;99.90;;;;;;5110675;28;20207;-53
2022/01/07 11:59:14;;;;;;;21.60;17.50;;;2.50;99.90;;;;;;5105965;28;20687;-54
2022/01/07 12:01:44;;;;;;;24.73;20.20;;;2.40;99.90;;;;;;5110069;28;20268;-55
2022/01/07 12:04:28;;;;;;;22.87;18.50;;;2.40;99.90;;;;;;5111059;28;20236;-53
2022/01/07 12:06:57;;;;;;;22.53;20.17;;;2.30;99.90;;;;;;5109505;28;20328;-53
2022/01/07 12:09:35;;;;;;;24.83;20.37;;;2.30;99.90;;;;;;5109410;28;20206;-54
2022/01/07 12:12:06;;;;;;;21.40;17.17;;;2.40;99.90;;;;;;5111133;28;20199;-53
2022/01/07 12:14:38;;;;;;;18.10;16.20;;;2.50;99.90;;;;;;5110869;28;20231;-54
2022/01/07 12:17:13;;;;;;;20.57;15.90;;;2.60;99.90;;;;;;5110672;28;20223;-53
2022/01/07 12:20:17;;;;;;;19.43;14.60;;;2.60;99.90;;;;;;5121193;28;20201;-54
2022/01/07 12:22:53;;;;;;;19.33;16.77;;;2.60;99.90;;;;;;5113620;28;20272;-54
2022/01/07 12:25:23;;;;;;;18.07;15.67;;;2.60;99.90;;;;;;5110599;28;20232;-55
2022/01/07 12:28:05;;;;;;;18.10;16.07;;;2.60;99.90;;;;;;5110128;28;20301;-53
2022/01/07 12:30:33;;;;;;;19.50;16.13;;;2.50;99.90;;;;;;5124919;28;20207;-54
2022/01/07 12:33:12;;;;;;;20.27;16.70;;;2.50;99.90;;;;;;5131514;28;20208;-54
2022/01/07 12:35:41;;;;;;;19.90;15.83;;;2.50;99.90;;;;;;5099122;28;20196;-54
2022/01/07 12:38:17;;;;;;;16.93;14.70;;;2.50;99.90;;;;;;5110538;28;20223;-53
2022/01/07 12:40:56;;;;;;;17.67;14.67;;;2.40;99.90;;;;;;5099451;28;20204;-54
2022/01/07 12:43:32;;;;;;;15.03;13.50;;;2.40;99.90;;;;;;5090222;28;20780;-53
2022/01/07 12:46:01;;;;;;;15.47;12.80;;;2.30;99.90;;;;;;5100246;28;20281;-54
2022/01/07 12:48:39;;;;;;;16.93;13.50;;;2.30;99.90;;;;;;5113867;28;20223;-54
2022/01/07 12:51:08;;;;;;;16.00;12.60;;;2.30;99.90;;;;;;5114428;28;20666;-55
2022/01/07 12:53:37;;;;;;;17.47;13.43;;;2.30;99.90;;;;;;5116891;27;20200;-54
2022/01/07 12:56:26;;;;;;;15.33;12.00;;;2.40;99.90;;;;;;5130780;27;20200;-54
2022/01/07 12:58:54;;;;;;;14.23;12.47;;;2.40;99.90;;;;;;5110993;28;20271;-53
2022/01/07 13:01:26;;;;;;;14.10;12.23;;;2.40;99.90;;;;;;5110203;27;20212;-55